createdAt,value
2022-08-19T00:01:33.686Z,100021.91
2022-08-19T00:06:32.136Z,100065.53
2022-08-19T00:11:26.250Z,100063.53
2022-08-19T00:16:25.329Z,100041.34
2022-08-19T00:21:20.809Z,100042.13
2022-08-19T00:26:14.228Z,100028.66
2022-08-19T00:31:08.921Z,99998.41
2022-08-19T00:36:09.492Z,100014.81
2022-08-19T00:41:06.623Z,100009.22
2022-08-19T00:46:00.884Z,99999.84
2022-08-19T00:50:55.881Z,100036.97
2022-08-19T00:55:52.795Z,100043.09
2022-08-19T01:00:48.278Z,100048.75
2022-08-19T01:05:43.957Z,100034.47
2022-08-19T01:10:54.325Z,100056.06
2022-08-19T01:15:59.885Z,100016.13
2022-08-19T01:20:56.016Z,100038.53
2022-08-19T01:25:53.870Z,100016.81
2022-08-19T01:30:51.043Z,100028.25
2022-08-19T01:35:45.764Z,100032.78
2022-08-19T01:40:41.375Z,100030.97
2022-08-19T01:45:36.822Z,100016.44
2022-08-19T01:50:31.591Z,100010.47
2022-08-19T01:55:25.779Z,100001.91
2022-08-19T02:00:22.933Z,99976.53
2022-08-19T02:05:25.556Z,99969.03
2022-08-19T02:10:22.324Z,99958.94
2022-08-19T02:15:15.300Z,99974.22
2022-08-19T02:20:12.340Z,99981.66
2022-08-19T02:25:07.347Z,100003.50
2022-08-19T02:30:01.267Z,99974.63
2022-08-19T02:34:55.513Z,99960.78
2022-08-19T02:39:51.794Z,99971.03
2022-08-19T02:44:45.785Z,99962.03
2022-08-19T02:49:40.023Z,99973.22
2022-08-19T02:54:33.655Z,99973.72
2022-08-19T02:59:28.169Z,99941.09
2022-08-19T03:04:22.643Z,99944.75
2022-08-19T03:09:17.141Z,99941.25
2022-08-19T03:14:12.007Z,99948.28
2022-08-19T03:19:07.480Z,99963.28
2022-08-19T03:24:05.369Z,99961.06
2022-08-19T03:28:59.287Z,99985.91
2022-08-19T03:33:53.528Z,99965.41
2022-08-19T03:38:49.874Z,100005.81
2022-08-19T03:43:54.420Z,99988.16
2022-08-19T03:48:49.590Z,99993.09
2022-08-19T03:53:43.157Z,99976.50
2022-08-19T03:58:37.256Z,99984.56
2022-08-19T04:03:31.415Z,99981.69
2022-08-19T04:08:25.433Z,100025.19
2022-08-19T04:13:19.542Z,100033.38
2022-08-19T04:18:12.502Z,100041.78
2022-08-19T04:23:06.258Z,100040.09
2022-08-19T04:28:00.339Z,100067.09
2022-08-19T04:32:55.032Z,100046.25
2022-08-19T04:37:48.970Z,100067.38
2022-08-19T04:42:42.616Z,100066.41
2022-08-19T04:47:49.114Z,100050.53
2022-08-19T04:52:52.230Z,100079.22
2022-08-19T04:57:46.237Z,100079.16
2022-08-19T05:02:40.312Z,100095.91
2022-08-19T05:07:34.227Z,100100.97
2022-08-19T05:12:33.087Z,100068.38
2022-08-19T05:17:32.280Z,100082.44
2022-08-19T05:22:35.524Z,100077.97
2022-08-19T05:27:30.776Z,100034.09
2022-08-19T05:32:25.334Z,100036.97
2022-08-19T05:37:19.404Z,100083.94
2022-08-19T05:42:14.008Z,100054.63
2022-08-19T05:47:10.099Z,100051.03
2022-08-19T05:52:09.782Z,100122.94
2022-08-19T05:57:03.732Z,100144.19
2022-08-19T06:01:58.837Z,100156.56
2022-08-19T06:06:54.491Z,100085.38
2022-08-19T06:12:07.859Z,100146.84
2022-08-19T06:17:06.857Z,100161.94
2022-08-19T06:22:02.600Z,100156.75
2022-08-19T06:27:01.981Z,100158.06
2022-08-19T06:32:02.197Z,100175.66
2022-08-19T06:36:57.883Z,100165.56
2022-08-19T06:41:56.792Z,100157.50
2022-08-19T06:46:53.673Z,100158.88
2022-08-19T06:51:50.381Z,100161.47
2022-08-19T06:56:47.510Z,100138.53
2022-08-19T07:01:48.820Z,100168.06
2022-08-19T07:06:43.332Z,100134.88
2022-08-19T07:11:38.480Z,100153.00
2022-08-19T07:16:31.799Z,100136.41
2022-08-19T07:21:29.730Z,100160.75
2022-08-19T07:26:27.981Z,100156.81
2022-08-19T07:31:24.971Z,100141.19
2022-08-19T07:36:21.311Z,100171.28
2022-08-19T07:41:23.449Z,100177.50
2022-08-19T07:46:18.359Z,100179.34
2022-08-19T07:51:12.564Z,100171.16
2022-08-19T07:56:09.655Z,100198.03
2022-08-19T08:01:04.116Z,100154.44
2022-08-19T08:06:16.536Z,100149.06
2022-08-19T08:11:10.356Z,100147.09
2022-08-19T08:16:04.919Z,100187.31
2022-08-19T08:21:04.769Z,100203.50
2022-08-19T08:25:59.580Z,100198.16
2022-08-19T08:30:53.651Z,100193.06
2022-08-19T08:35:47.154Z,100168.72
2022-08-19T08:40:54.460Z,100171.78
2022-08-19T08:45:54.292Z,100180.25
2022-08-19T08:50:52.318Z,100189.50
2022-08-19T08:55:47.386Z,100176.31
2022-08-19T09:00:53.658Z,100204.25
2022-08-19T09:05:59.543Z,100194.44
2022-08-19T09:10:56.157Z,100216.78
2022-08-19T09:15:56.954Z,100203.72
2022-08-19T09:21:10.559Z,100211.41
2022-08-19T09:26:16.521Z,100200.75
2022-08-19T09:31:09.976Z,100215.38
2022-08-19T09:36:09.024Z,100229.03
2022-08-19T09:41:07.461Z,100227.06
2022-08-19T09:46:02.103Z,100203.88
2022-08-19T09:50:55.764Z,100254.81
2022-08-19T09:55:49.108Z,100231.19
2022-08-19T10:00:43.060Z,100247.50
2022-08-19T10:05:55.329Z,100242.31
2022-08-19T10:10:50.351Z,100216.00
2022-08-19T10:15:47.736Z,100197.31
2022-08-19T10:20:43.442Z,100222.91
2022-08-19T10:25:38.400Z,100183.66
2022-08-19T10:30:32.476Z,100197.72
2022-08-19T10:35:31.385Z,100212.50
2022-08-19T10:40:36.433Z,100210.50
2022-08-19T10:45:30.038Z,100195.41
2022-08-19T10:50:41.844Z,100201.91
2022-08-19T10:55:53.715Z,100184.13
2022-08-19T11:00:54.579Z,100175.25
2022-08-19T11:05:50.742Z,100136.09
2022-08-19T11:10:46.794Z,100163.31
2022-08-19T11:15:44.884Z,100175.31
2022-08-19T11:20:39.041Z,100184.50
2022-08-19T11:25:32.986Z,100162.13
2022-08-19T11:30:26.450Z,100193.03
2022-08-19T11:35:21.359Z,100183.75
2022-08-19T11:40:15.711Z,100172.09
2022-08-19T11:45:11.956Z,100187.72
2022-08-19T11:50:07.801Z,100167.78
2022-08-19T11:55:01.994Z,100187.75
2022-08-19T11:59:55.924Z,100156.94
2022-08-19T12:04:50.580Z,100173.53
2022-08-19T12:09:44.631Z,100153.00
2022-08-19T12:14:39.448Z,100163.69
2022-08-19T12:19:32.825Z,100171.94
2022-08-19T12:24:26.532Z,100165.91
2022-08-19T12:29:26.011Z,100136.53
2022-08-19T12:34:24.769Z,100159.78
2022-08-19T12:39:19.229Z,100134.78
2022-08-19T12:44:13.891Z,100126.00
2022-08-19T12:49:17.912Z,100115.75
2022-08-19T12:54:22.229Z,100151.66
2022-08-19T12:59:19.104Z,100142.59
2022-08-19T13:04:12.113Z,100143.50
2022-08-19T13:09:05.836Z,100141.91
2022-08-19T13:13:59.866Z,100136.75
2022-08-19T13:18:54.419Z,100130.59
2022-08-19T13:23:48.915Z,100143.50
2022-08-19T13:29:02.845Z,100136.91
2022-08-19T13:33:57.107Z,100137.06
2022-08-19T13:38:51.700Z,100135.66
2022-08-19T13:43:45.685Z,100129.44
2022-08-19T13:48:40.209Z,100102.25
2022-08-19T13:53:34.171Z,100116.38
2022-08-19T13:58:27.991Z,100126.47
2022-08-19T14:03:21.556Z,100133.34
2022-08-19T14:08:20.020Z,100116.94
2022-08-19T14:13:16.638Z,100144.31
2022-08-19T14:18:11.133Z,100141.47
2022-08-19T14:23:04.594Z,100135.28
2022-08-19T14:27:58.041Z,100133.28
2022-08-19T14:32:52.093Z,100103.13
2022-08-19T14:37:47.569Z,100122.66
2022-08-19T14:42:40.369Z,100145.41
2022-08-19T14:47:34.134Z,100117.69
2022-08-19T14:52:27.861Z,100112.50
2022-08-19T14:57:21.398Z,100118.94
2022-08-19T15:02:33.876Z,100135.38
2022-08-19T15:07:29.746Z,100124.28
2022-08-19T15:12:24.067Z,100131.84
2022-08-19T15:17:18.926Z,100106.59
2022-08-19T15:22:12.804Z,100142.56
2022-08-19T15:27:07.702Z,100129.34
2022-08-19T15:32:01.347Z,100140.63
2022-08-19T15:36:56.032Z,100129.34
2022-08-19T15:41:50.022Z,100103.66
2022-08-19T15:46:46.273Z,100137.94
2022-08-19T15:51:43.411Z,100137.94
2022-08-19T15:56:57.849Z,100138.06
2022-08-19T16:02:10.672Z,100131.72
2022-08-19T16:07:09.300Z,100111.63
2022-08-19T16:12:05.178Z,100134.53
2022-08-19T16:16:59.034Z,100136.22
2022-08-19T16:21:55.008Z,100130.78
2022-08-19T16:26:50.003Z,100128.19
2022-08-19T16:31:46.961Z,100142.00
2022-08-19T16:36:42.675Z,100146.38
2022-08-19T16:41:37.946Z,100153.25
2022-08-19T16:46:32.179Z,100156.38
2022-08-19T16:51:27.027Z,100153.56
2022-08-19T16:56:20.689Z,100141.03
2022-08-19T17:01:14.050Z,100146.50
2022-08-19T17:06:29.523Z,100147.91
2022-08-19T17:11:24.888Z,100111.09
2022-08-19T17:16:22.269Z,100142.00
2022-08-19T17:21:15.505Z,100141.03
2022-08-19T17:26:09.012Z,100168.88
2022-08-19T17:31:10.355Z,100153.34
2022-08-19T17:36:05.104Z,100167.13
2022-08-19T17:41:05.524Z,100157.75
2022-08-19T17:46:03.325Z,100182.34
2022-08-19T17:50:57.906Z,100150.19
2022-08-19T17:55:52.499Z,100184.50
2022-08-19T18:00:53.315Z,100198.94
2022-08-19T18:05:48.764Z,100207.84
2022-08-19T18:10:42.517Z,100205.16
2022-08-19T18:15:36.691Z,100212.59
2022-08-19T18:20:34.291Z,100203.31
2022-08-19T18:25:28.399Z,100200.13
2022-08-19T18:30:22.546Z,100215.44
2022-08-19T18:35:19.696Z,100219.44
2022-08-19T18:40:34.332Z,100216.88
2022-08-19T18:45:46.679Z,100204.09
2022-08-19T18:50:44.139Z,100225.34
2022-08-19T18:55:37.920Z,100218.31
2022-08-19T19:00:32.624Z,100237.28
2022-08-19T19:05:28.337Z,100246.69
2022-08-19T19:10:21.661Z,100255.75
2022-08-19T19:15:15.861Z,100249.16
2022-08-19T19:20:10.740Z,100265.91
2022-08-19T19:25:04.352Z,100268.31
2022-08-19T19:29:58.621Z,100253.66
2022-08-19T19:34:52.474Z,100229.91
2022-08-19T19:39:48.339Z,100246.19
2022-08-19T19:44:47.139Z,100255.38
2022-08-19T19:50:03.891Z,100269.88
2022-08-19T19:55:00.385Z,100283.41
2022-08-19T19:59:55.285Z,100279.19
2022-08-19T20:04:49.043Z,100267.41
2022-08-19T20:09:58.695Z,100275.00
2022-08-19T20:14:53.213Z,100303.97
2022-08-19T20:19:46.683Z,100289.03
2022-08-19T20:24:43.218Z,100298.16
2022-08-19T20:29:38.929Z,100298.84
2022-08-19T20:34:34.518Z,100335.72
2022-08-19T20:39:27.699Z,100300.13
2022-08-19T20:44:21.774Z,100289.13
2022-08-19T20:49:15.671Z,100321.53
2022-08-19T20:54:09.143Z,100322.00
2022-08-19T20:59:04.925Z,100331.56
2022-08-19T21:03:58.745Z,100296.53
2022-08-19T21:08:52.628Z,100317.19
2022-08-19T21:13:47.036Z,100309.03
2022-08-19T21:18:40.723Z,100299.47
2022-08-19T21:23:34.460Z,100280.75
2022-08-19T21:28:29.976Z,100300.84
2022-08-19T21:33:34.879Z,100298.16
2022-08-19T21:38:28.755Z,100284.94
2022-08-19T21:43:22.958Z,100309.31
2022-08-19T21:48:16.792Z,100323.66
2022-08-19T21:53:11.318Z,100316.34
2022-08-19T21:58:07.316Z,100323.50
2022-08-19T22:03:02.297Z,100318.19
2022-08-19T22:07:59.833Z,100341.41
2022-08-19T22:12:57.701Z,100344.81
2022-08-19T22:17:52.221Z,100330.44
2022-08-19T22:22:56.941Z,100316.63
2022-08-19T22:28:00.490Z,100350.72
2022-08-19T22:33:01.462Z,100348.88
2022-08-19T22:37:55.826Z,100352.41
2022-08-19T22:42:49.437Z,100343.09
2022-08-19T22:47:42.886Z,100334.78
2022-08-19T22:52:36.053Z,100361.72
2022-08-19T22:57:29.460Z,100327.91
2022-08-19T23:02:28.629Z,100349.88
2022-08-19T23:07:23.850Z,100335.50
2022-08-19T23:12:17.684Z,100311.00
2022-08-19T23:17:11.608Z,100303.13
2022-08-19T23:22:06.008Z,100310.00
2022-08-19T23:27:18.295Z,100345.06
2022-08-19T23:32:12.279Z,100339.47
2022-08-19T23:37:09.395Z,100352.69
2022-08-19T23:42:03.190Z,100335.78
2022-08-19T23:46:59.066Z,100334.47
2022-08-19T23:51:58.082Z,100318.63
2022-08-19T23:56:52.308Z,100333.25
